sensor_id;sensor_type;location;lat;lon;timestamp;P1;durP1;ratioP1;P2;durP2;ratioP2
25299;SDS011;13241;51.208;4.432;2023-03-05T00:00:10;2.63;;;1.23;;
25299;SDS011;13241;51.208;4.432;2023-03-05T00:02:41;6.63;;;0.88;;
25299;SDS011;13241;51.208;4.432;2023-03-05T00:05:08;2.28;;;1.70;;
25299;SDS011;13241;51.208;4.432;2023-03-05T00:07:36;1.27;;;1.17;;
25299;SDS011;13241;51.208;4.432;2023-03-05T00:10:04;2.35;;;1.13;;
25299;SDS011;13241;51.208;4.432;2023-03-05T00:12:31;0.60;;;0.60;;
25299;SDS011;13241;51.208;4.432;2023-03-05T00:14:58;1.20;;;1.02;;
25299;SDS011;13241;51.208;4.432;2023-03-05T00:17:26;4.38;;;1.38;;
25299;SDS011;13241;51.208;4.432;2023-03-05T00:19:53;0.70;;;0.60;;
25299;SDS011;13241;51.208;4.432;2023-03-05T00:22:22;4.43;;;1.02;;
25299;SDS011;13241;51.208;4.432;2023-03-05T00:24:50;4.95;;;1.15;;
25299;SDS011;13241;51.208;4.432;2023-03-05T00:27:19;0.43;;;0.43;;
25299;SDS011;13241;51.208;4.432;2023-03-05T00:29:46;1.38;;;0.90;;
25299;SDS011;13241;51.208;4.432;2023-03-05T00:32:14;12.15;;;1.13;;
25299;SDS011;13241;51.208;4.432;2023-03-05T00:34:41;3.30;;;0.88;;
25299;SDS011;13241;51.208;4.432;2023-03-05T00:37:08;9.50;;;1.63;;
25299;SDS011;13241;51.208;4.432;2023-03-05T00:39:36;1.20;;;0.88;;
25299;SDS011;13241;51.208;4.432;2023-03-05T00:42:03;0.90;;;0.88;;
25299;SDS011;13241;51.208;4.432;2023-03-05T00:44:30;0.60;;;0.60;;
25299;SDS011;13241;51.208;4.432;2023-03-05T00:46:58;6.82;;;1.38;;
25299;SDS011;13241;51.208;4.432;2023-03-05T00:49:25;1.77;;;1.02;;
25299;SDS011;13241;51.208;4.432;2023-03-05T00:51:53;3.80;;;1.08;;
25299;SDS011;13241;51.208;4.432;2023-03-05T00:54:20;1.38;;;0.57;;
25299;SDS011;13241;51.208;4.432;2023-03-05T00:56:50;9.82;;;2.17;;
25299;SDS011;13241;51.208;4.432;2023-03-05T00:59:17;0.52;;;0.45;;
25299;SDS011;13241;51.208;4.432;2023-03-05T01:01:44;3.72;;;1.00;;
25299;SDS011;13241;51.208;4.432;2023-03-05T01:04:11;1.15;;;1.05;;
25299;SDS011;13241;51.208;4.432;2023-03-05T01:06:39;6.50;;;1.60;;
25299;SDS011;13241;51.208;4.432;2023-03-05T01:09:11;3.67;;;1.30;;
25299;SDS011;13241;51.208;4.432;2023-03-05T01:11:38;2.00;;;1.00;;
25299;SDS011;13241;51.208;4.432;2023-03-05T01:14:05;5.70;;;1.13;;
25299;SDS011;13241;51.208;4.432;2023-03-05T01:16:33;1.10;;;0.82;;
25299;SDS011;13241;51.208;4.432;2023-03-05T01:19:00;1.05;;;0.63;;
25299;SDS011;13241;51.208;4.432;2023-03-05T01:21:27;7.22;;;1.27;;
25299;SDS011;13241;51.208;4.432;2023-03-05T01:23:55;1.35;;;1.05;;
25299;SDS011;13241;51.208;4.432;2023-03-05T01:26:22;4.63;;;1.27;;
25299;SDS011;13241;51.208;4.432;2023-03-05T01:28:49;0.90;;;0.65;;
25299;SDS011;13241;51.208;4.432;2023-03-05T01:31:18;0.85;;;0.80;;
25299;SDS011;13241;51.208;4.432;2023-03-05T01:33:45;5.97;;;0.75;;
25299;SDS011;13241;51.208;4.432;2023-03-05T01:36:14;3.05;;;1.00;;
25299;SDS011;13241;51.208;4.432;2023-03-05T01:38:42;2.78;;;0.98;;
25299;SDS011;13241;51.208;4.432;2023-03-05T01:41:10;4.75;;;1.40;;
25299;SDS011;13241;51.208;4.432;2023-03-05T01:43:40;5.22;;;0.88;;
25299;SDS011;13241;51.208;4.432;2023-03-05T01:51:24;4.00;;;2.03;;
25299;SDS011;13241;51.208;4.432;2023-03-05T01:53:57;2.67;;;1.20;;
25299;SDS011;13241;51.208;4.432;2023-03-05T01:56:28;6.63;;;1.98;;
25299;SDS011;13241;51.208;4.432;2023-03-05T01:58:56;9.32;;;1.73;;
25299;SDS011;13241;51.208;4.432;2023-03-05T02:01:30;1.40;;;1.20;;
25299;SDS011;13241;51.208;4.432;2023-03-05T02:03:57;2.28;;;1.33;;
25299;SDS011;13241;51.208;4.432;2023-03-05T02:06:25;8.52;;;3.25;;
25299;SDS011;13241;51.208;4.432;2023-03-05T02:08:53;8.73;;;1.77;;
25299;SDS011;13241;51.208;4.432;2023-03-05T02:11:21;9.13;;;1.65;;
25299;SDS011;13241;51.208;4.432;2023-03-05T02:13:50;6.18;;;1.77;;
25299;SDS011;13241;51.208;4.432;2023-03-05T02:16:17;2.33;;;1.52;;
25299;SDS011;13241;51.208;4.432;2023-03-05T02:18:44;7.30;;;2.08;;
25299;SDS011;13241;51.208;4.432;2023-03-05T02:21:12;6.55;;;2.17;;
25299;SDS011;13241;51.208;4.432;2023-03-05T02:23:41;4.30;;;2.05;;
25299;SDS011;13241;51.208;4.432;2023-03-05T02:26:09;4.80;;;1.27;;
25299;SDS011;13241;51.208;4.432;2023-03-05T02:28:38;5.78;;;1.80;;
25299;SDS011;13241;51.208;4.432;2023-03-05T02:31:12;2.95;;;1.33;;
25299;SDS011;13241;51.208;4.432;2023-03-05T02:36:07;3.50;;;1.85;;
25299;SDS011;13241;51.208;4.432;2023-03-05T02:38:35;4.38;;;2.28;;
25299;SDS011;13241;51.208;4.432;2023-03-05T02:41:03;5.22;;;2.33;;
25299;SDS011;13241;51.208;4.432;2023-03-05T02:43:30;7.82;;;2.30;;
25299;SDS011;13241;51.208;4.432;2023-03-05T02:45:58;3.20;;;2.15;;
25299;SDS011;13241;51.208;4.432;2023-03-05T02:48:25;4.60;;;2.40;;
25299;SDS011;13241;51.208;4.432;2023-03-05T02:50:52;1.90;;;1.70;;
25299;SDS011;13241;51.208;4.432;2023-03-05T02:53:21;5.53;;;2.13;;
25299;SDS011;13241;51.208;4.432;2023-03-05T02:55:49;4.38;;;2.17;;
25299;SDS011;13241;51.208;4.432;2023-03-05T02:58:17;3.63;;;2.33;;
25299;SDS011;13241;51.208;4.432;2023-03-05T03:00:44;3.63;;;1.77;;
25299;SDS011;13241;51.208;4.432;2023-03-05T03:03:14;4.70;;;2.38;;
25299;SDS011;13241;51.208;4.432;2023-03-05T03:05:41;4.18;;;1.92;;
25299;SDS011;13241;51.208;4.432;2023-03-05T03:08:09;3.15;;;1.90;;
25299;SDS011;13241;51.208;4.432;2023-03-05T03:10:36;5.20;;;2.33;;
25299;SDS011;13241;51.208;4.432;2023-03-05T03:13:04;5.47;;;2.35;;
25299;SDS011;13241;51.208;4.432;2023-03-05T03:15:31;13.50;;;2.55;;
25299;SDS011;13241;51.208;4.432;2023-03-05T03:17:58;2.28;;;2.08;;
25299;SDS011;13241;51.208;4.432;2023-03-05T03:20:25;6.40;;;2.92;;
25299;SDS011;13241;51.208;4.432;2023-03-05T03:22:53;4.88;;;2.80;;
25299;SDS011;13241;51.208;4.432;2023-03-05T03:25:20;2.53;;;1.98;;
25299;SDS011;13241;51.208;4.432;2023-03-05T03:27:50;5.30;;;2.60;;
25299;SDS011;13241;51.208;4.432;2023-03-05T03:30:17;6.88;;;2.72;;
25299;SDS011;13241;51.208;4.432;2023-03-05T03:32:46;5.55;;;2.75;;
25299;SDS011;13241;51.208;4.432;2023-03-05T03:35:13;7.63;;;2.35;;
25299;SDS011;13241;51.208;4.432;2023-03-05T03:37:40;3.40;;;2.25;;
25299;SDS011;13241;51.208;4.432;2023-03-05T03:40:08;6.30;;;2.55;;
25299;SDS011;13241;51.208;4.432;2023-03-05T03:42:35;4.88;;;2.25;;
25299;SDS011;13241;51.208;4.432;2023-03-05T03:45:03;3.40;;;1.90;;
25299;SDS011;13241;51.208;4.432;2023-03-05T03:47:30;4.15;;;2.08;;
25299;SDS011;13241;51.208;4.432;2023-03-05T03:49:57;4.38;;;2.38;;
25299;SDS011;13241;51.208;4.432;2023-03-05T03:52:26;7.47;;;3.00;;
25299;SDS011;13241;51.208;4.432;2023-03-05T03:54:53;4.43;;;2.83;;
25299;SDS011;13241;51.208;4.432;2023-03-05T03:57:27;4.78;;;2.55;;
25299;SDS011;13241;51.208;4.432;2023-03-05T03:59:54;6.45;;;3.05;;
25299;SDS011;13241;51.208;4.432;2023-03-05T04:02:21;7.15;;;3.00;;
25299;SDS011;13241;51.208;4.432;2023-03-05T04:04:49;7.13;;;3.33;;
25299;SDS011;13241;51.208;4.432;2023-03-05T04:07:16;3.83;;;2.75;;
25299;SDS011;13241;51.208;4.432;2023-03-05T04:09:43;5.95;;;2.55;;
25299;SDS011;13241;51.208;4.432;2023-03-05T04:12:11;5.70;;;3.15;;
25299;SDS011;13241;51.208;4.432;2023-03-05T04:14:46;4.68;;;2.95;;
25299;SDS011;13241;51.208;4.432;2023-03-05T04:17:14;5.82;;;2.72;;
25299;SDS011;13241;51.208;4.432;2023-03-05T04:19:42;8.15;;;3.95;;
25299;SDS011;13241;51.208;4.432;2023-03-05T04:22:12;4.10;;;2.83;;
25299;SDS011;13241;51.208;4.432;2023-03-05T04:24:40;7.80;;;3.13;;
25299;SDS011;13241;51.208;4.432;2023-03-05T04:27:07;7.45;;;2.92;;
25299;SDS011;13241;51.208;4.432;2023-03-05T04:29:35;5.55;;;3.30;;
25299;SDS011;13241;51.208;4.432;2023-03-05T04:32:02;5.43;;;2.55;;
25299;SDS011;13241;51.208;4.432;2023-03-05T04:34:31;6.15;;;2.85;;
25299;SDS011;13241;51.208;4.432;2023-03-05T04:36:58;8.38;;;3.70;;
25299;SDS011;13241;51.208;4.432;2023-03-05T04:39:25;9.55;;;3.15;;
25299;SDS011;13241;51.208;4.432;2023-03-05T04:41:53;7.43;;;2.88;;
25299;SDS011;13241;51.208;4.432;2023-03-05T04:44:20;5.90;;;3.63;;
25299;SDS011;13241;51.208;4.432;2023-03-05T04:46:48;7.03;;;3.17;;
25299;SDS011;13241;51.208;4.432;2023-03-05T04:49:15;6.40;;;3.40;;
25299;SDS011;13241;51.208;4.432;2023-03-05T04:51:43;6.82;;;3.63;;
25299;SDS011;13241;51.208;4.432;2023-03-05T04:54:10;9.65;;;3.35;;
25299;SDS011;13241;51.208;4.432;2023-03-05T04:56:37;5.45;;;3.10;;
25299;SDS011;13241;51.208;4.432;2023-03-05T04:59:04;5.97;;;2.55;;
25299;SDS011;13241;51.208;4.432;2023-03-05T05:01:32;13.43;;;4.32;;
25299;SDS011;13241;51.208;4.432;2023-03-05T05:04:00;9.93;;;4.25;;
25299;SDS011;13241;51.208;4.432;2023-03-05T05:06:27;4.50;;;2.53;;
25299;SDS011;13241;51.208;4.432;2023-03-05T05:08:55;14.05;;;3.15;;
25299;SDS011;13241;51.208;4.432;2023-03-05T05:11:22;6.28;;;2.55;;
25299;SDS011;13241;51.208;4.432;2023-03-05T05:13:49;5.82;;;2.80;;
25299;SDS011;13241;51.208;4.432;2023-03-05T05:16:16;6.43;;;2.97;;
25299;SDS011;13241;51.208;4.432;2023-03-05T05:18:44;8.48;;;3.33;;
25299;SDS011;13241;51.208;4.432;2023-03-05T05:21:12;5.05;;;3.20;;
25299;SDS011;13241;51.208;4.432;2023-03-05T05:23:40;4.53;;;2.72;;
25299;SDS011;13241;51.208;4.432;2023-03-05T05:26:07;11.68;;;3.22;;
25299;SDS011;13241;51.208;4.432;2023-03-05T05:28:35;3.90;;;2.42;;
25299;SDS011;13241;51.208;4.432;2023-03-05T05:31:07;10.18;;;2.40;;
25299;SDS011;13241;51.208;4.432;2023-03-05T05:33:34;16.15;;;3.38;;
25299;SDS011;13241;51.208;4.432;2023-03-05T05:36:03;4.07;;;2.42;;
25299;SDS011;13241;51.208;4.432;2023-03-05T05:38:30;2.42;;;2.10;;
25299;SDS011;13241;51.208;4.432;2023-03-05T05:41:04;2.90;;;1.75;;
25299;SDS011;13241;51.208;4.432;2023-03-05T05:43:32;6.40;;;2.88;;
25299;SDS011;13241;51.208;4.432;2023-03-05T05:46:03;9.00;;;2.08;;
25299;SDS011;13241;51.208;4.432;2023-03-05T05:48:31;3.08;;;2.03;;
25299;SDS011;13241;51.208;4.432;2023-03-05T05:51:00;5.35;;;2.08;;
25299;SDS011;13241;51.208;4.432;2023-03-05T05:53:30;4.85;;;2.47;;
25299;SDS011;13241;51.208;4.432;2023-03-05T05:55:58;3.25;;;1.70;;
25299;SDS011;13241;51.208;4.432;2023-03-05T05:58:25;1.55;;;1.45;;
25299;SDS011;13241;51.208;4.432;2023-03-05T06:00:52;2.00;;;1.75;;
25299;SDS011;13241;51.208;4.432;2023-03-05T06:03:19;1.40;;;1.30;;
25299;SDS011;13241;51.208;4.432;2023-03-05T06:05:47;3.33;;;2.42;;
25299;SDS011;13241;51.208;4.432;2023-03-05T06:08:14;3.00;;;2.08;;
25299;SDS011;13241;51.208;4.432;2023-03-05T06:10:41;4.38;;;1.70;;
25299;SDS011;13241;51.208;4.432;2023-03-05T06:13:08;3.40;;;2.17;;
25299;SDS011;13241;51.208;4.432;2023-03-05T06:15:35;5.47;;;2.53;;
25299;SDS011;13241;51.208;4.432;2023-03-05T06:18:03;3.33;;;2.35;;
25299;SDS011;13241;51.208;4.432;2023-03-05T06:20:30;7.88;;;2.33;;
25299;SDS011;13241;51.208;4.432;2023-03-05T06:22:57;7.82;;;1.88;;
25299;SDS011;13241;51.208;4.432;2023-03-05T06:25:25;6.93;;;2.53;;
25299;SDS011;13241;51.208;4.432;2023-03-05T06:27:52;6.53;;;2.40;;
25299;SDS011;13241;51.208;4.432;2023-03-05T06:30:19;2.30;;;1.60;;
25299;SDS011;13241;51.208;4.432;2023-03-05T06:32:46;6.15;;;2.75;;
25299;SDS011;13241;51.208;4.432;2023-03-05T06:35:13;2.55;;;2.00;;
25299;SDS011;13241;51.208;4.432;2023-03-05T06:37:41;12.15;;;2.53;;
25299;SDS011;13241;51.208;4.432;2023-03-05T06:40:08;3.35;;;1.80;;
25299;SDS011;13241;51.208;4.432;2023-03-05T06:42:36;4.10;;;2.10;;
25299;SDS011;13241;51.208;4.432;2023-03-05T06:45:03;2.30;;;1.77;;
25299;SDS011;13241;51.208;4.432;2023-03-05T06:47:31;4.07;;;2.40;;
25299;SDS011;13241;51.208;4.432;2023-03-05T06:49:58;2.58;;;2.22;;
25299;SDS011;13241;51.208;4.432;2023-03-05T06:52:25;7.88;;;2.55;;
25299;SDS011;13241;51.208;4.432;2023-03-05T06:54:52;3.28;;;2.00;;
25299;SDS011;13241;51.208;4.432;2023-03-05T06:57:21;4.57;;;2.53;;
25299;SDS011;13241;51.208;4.432;2023-03-05T06:59:49;8.32;;;2.45;;
25299;SDS011;13241;51.208;4.432;2023-03-05T07:02:16;5.28;;;1.80;;
25299;SDS011;13241;51.208;4.432;2023-03-05T07:04:44;5.00;;;2.88;;
25299;SDS011;13241;51.208;4.432;2023-03-05T07:07:11;7.22;;;1.98;;
25299;SDS011;13241;51.208;4.432;2023-03-05T07:09:38;4.32;;;2.13;;
25299;SDS011;13241;51.208;4.432;2023-03-05T07:12:09;8.52;;;2.65;;
25299;SDS011;13241;51.208;4.432;2023-03-05T07:14:37;3.38;;;2.30;;
25299;SDS011;13241;51.208;4.432;2023-03-05T07:17:05;4.55;;;2.83;;
25299;SDS011;13241;51.208;4.432;2023-03-05T07:19:32;2.95;;;1.80;;
25299;SDS011;13241;51.208;4.432;2023-03-05T07:22:00;2.90;;;2.17;;
25299;SDS011;13241;51.208;4.432;2023-03-05T07:24:27;3.67;;;2.17;;
25299;SDS011;13241;51.208;4.432;2023-03-05T07:26:55;4.28;;;2.00;;
25299;SDS011;13241;51.208;4.432;2023-03-05T07:29:23;5.53;;;2.08;;
25299;SDS011;13241;51.208;4.432;2023-03-05T07:31:50;3.22;;;2.05;;
25299;SDS011;13241;51.208;4.432;2023-03-05T07:34:18;4.78;;;2.58;;
25299;SDS011;13241;51.208;4.432;2023-03-05T07:36:48;4.00;;;2.63;;
25299;SDS011;13241;51.208;4.432;2023-03-05T07:39:16;2.90;;;1.95;;
25299;SDS011;13241;51.208;4.432;2023-03-05T07:41:47;4.05;;;2.22;;
25299;SDS011;13241;51.208;4.432;2023-03-05T07:44:24;3.90;;;2.38;;
25299;SDS011;13241;51.208;4.432;2023-03-05T07:46:52;4.45;;;2.13;;
25299;SDS011;13241;51.208;4.432;2023-03-05T07:49:19;3.70;;;2.17;;
25299;SDS011;13241;51.208;4.432;2023-03-05T07:51:46;6.50;;;2.85;;
25299;SDS011;13241;51.208;4.432;2023-03-05T07:54:13;2.75;;;2.42;;
25299;SDS011;13241;51.208;4.432;2023-03-05T07:56:41;5.72;;;3.17;;
25299;SDS011;13241;51.208;4.432;2023-03-05T07:59:10;4.03;;;2.67;;
25299;SDS011;13241;51.208;4.432;2023-03-05T08:01:38;3.55;;;2.50;;
25299;SDS011;13241;51.208;4.432;2023-03-05T08:04:05;10.27;;;2.78;;
25299;SDS011;13241;51.208;4.432;2023-03-05T08:06:33;3.53;;;1.83;;
25299;SDS011;13241;51.208;4.432;2023-03-05T08:09:01;3.28;;;1.95;;
25299;SDS011;13241;51.208;4.432;2023-03-05T08:11:31;4.13;;;2.53;;
25299;SDS011;13241;51.208;4.432;2023-03-05T08:13:58;2.15;;;1.60;;
25299;SDS011;13241;51.208;4.432;2023-03-05T08:16:26;2.97;;;1.73;;
25299;SDS011;13241;51.208;4.432;2023-03-05T08:18:54;1.88;;;1.27;;
25299;SDS011;13241;51.208;4.432;2023-03-05T08:21:23;4.90;;;1.20;;
25299;SDS011;13241;51.208;4.432;2023-03-05T08:23:59;5.32;;;1.20;;
25299;SDS011;13241;51.208;4.432;2023-03-05T08:26:28;3.30;;;2.42;;
25299;SDS011;13241;51.208;4.432;2023-03-05T08:28:56;1.65;;;1.45;;
25299;SDS011;13241;51.208;4.432;2023-03-05T08:31:24;1.92;;;0.68;;
25299;SDS011;13241;51.208;4.432;2023-03-05T08:33:52;1.70;;;1.42;;
25299;SDS011;13241;51.208;4.432;2023-03-05T08:36:20;1.13;;;1.02;;
25299;SDS011;13241;51.208;4.432;2023-03-05T08:38:47;1.30;;;1.17;;
25299;SDS011;13241;51.208;4.432;2023-03-05T08:41:16;2.78;;;1.25;;
25299;SDS011;13241;51.208;4.432;2023-03-05T08:43:44;1.10;;;1.00;;
25299;SDS011;13241;51.208;4.432;2023-03-05T08:46:11;1.55;;;1.10;;
25299;SDS011;13241;51.208;4.432;2023-03-05T08:48:39;2.03;;;1.10;;
25299;SDS011;13241;51.208;4.432;2023-03-05T08:51:11;0.90;;;0.85;;
25299;SDS011;13241;51.208;4.432;2023-03-05T08:53:39;0.93;;;0.73;;
25299;SDS011;13241;51.208;4.432;2023-03-05T08:56:06;1.15;;;0.85;;
25299;SDS011;13241;51.208;4.432;2023-03-05T08:58:33;3.33;;;1.15;;
25299;SDS011;13241;51.208;4.432;2023-03-05T09:01:01;7.55;;;1.20;;
25299;SDS011;13241;51.208;4.432;2023-03-05T09:03:28;3.22;;;1.30;;
25299;SDS011;13241;51.208;4.432;2023-03-05T09:05:59;3.55;;;1.60;;
25299;SDS011;13241;51.208;4.432;2023-03-05T09:08:28;1.58;;;1.17;;
25299;SDS011;13241;51.208;4.432;2023-03-05T09:10:55;1.33;;;0.80;;
25299;SDS011;13241;51.208;4.432;2023-03-05T09:13:23;3.25;;;1.05;;
25299;SDS011;13241;51.208;4.432;2023-03-05T09:15:57;3.28;;;1.00;;
25299;SDS011;13241;51.208;4.432;2023-03-05T09:18:24;2.13;;;1.27;;
25299;SDS011;13241;51.208;4.432;2023-03-05T09:20:52;0.77;;;0.68;;
25299;SDS011;13241;51.208;4.432;2023-03-05T09:23:20;1.38;;;1.05;;
25299;SDS011;13241;51.208;4.432;2023-03-05T09:25:49;1.05;;;0.80;;
25299;SDS011;13241;51.208;4.432;2023-03-05T09:28:17;4.00;;;1.20;;
25299;SDS011;13241;51.208;4.432;2023-03-05T09:30:44;0.77;;;0.65;;
25299;SDS011;13241;51.208;4.432;2023-03-05T09:33:11;1.10;;;0.85;;
25299;SDS011;13241;51.208;4.432;2023-03-05T09:35:39;1.73;;;0.85;;
25299;SDS011;13241;51.208;4.432;2023-03-05T09:38:06;0.75;;;0.75;;
25299;SDS011;13241;51.208;4.432;2023-03-05T09:40:41;1.23;;;0.90;;
25299;SDS011;13241;51.208;4.432;2023-03-05T09:43:19;0.70;;;0.70;;
25299;SDS011;13241;51.208;4.432;2023-03-05T09:48:38;0.95;;;0.75;;
25299;SDS011;13241;51.208;4.432;2023-03-05T09:51:11;2.45;;;1.50;;
25299;SDS011;13241;51.208;4.432;2023-03-05T09:56:30;2.35;;;1.85;;
25299;SDS011;13241;51.208;4.432;2023-03-05T09:59:00;1.52;;;1.15;;
25299;SDS011;13241;51.208;4.432;2023-03-05T10:01:32;1.45;;;1.05;;
25299;SDS011;13241;51.208;4.432;2023-03-05T10:14:17;1.27;;;1.05;;
25299;SDS011;13241;51.208;4.432;2023-03-05T10:16:49;4.40;;;0.80;;
25299;SDS011;13241;51.208;4.432;2023-03-05T10:22:17;0.80;;;0.80;;
25299;SDS011;13241;51.208;4.432;2023-03-05T10:27:14;0.77;;;0.70;;
25299;SDS011;13241;51.208;4.432;2023-03-05T10:32:39;0.60;;;0.60;;
25299;SDS011;13241;51.208;4.432;2023-03-05T10:40:35;1.00;;;0.90;;
25299;SDS011;13241;51.208;4.432;2023-03-05T10:43:13;1.90;;;1.27;;
25299;SDS011;13241;51.208;4.432;2023-03-05T10:45:47;2.25;;;1.35;;
25299;SDS011;13241;51.208;4.432;2023-03-05T10:48:26;2.35;;;0.90;;
25299;SDS011;13241;51.208;4.432;2023-03-05T10:56:08;3.97;;;0.98;;
25299;SDS011;13241;51.208;4.432;2023-03-05T10:58:37;4.72;;;1.02;;
25299;SDS011;13241;51.208;4.432;2023-03-05T11:01:17;2.05;;;0.90;;
25299;SDS011;13241;51.208;4.432;2023-03-05T11:06:28;0.75;;;0.75;;
25299;SDS011;13241;51.208;4.432;2023-03-05T11:09:01;1.10;;;0.95;;
25299;SDS011;13241;51.208;4.432;2023-03-05T11:11:40;1.00;;;0.90;;
25299;SDS011;13241;51.208;4.432;2023-03-05T11:14:22;2.80;;;1.52;;
25299;SDS011;13241;51.208;4.432;2023-03-05T11:16:55;5.28;;;0.90;;
25299;SDS011;13241;51.208;4.432;2023-03-05T11:19:29;3.67;;;1.10;;
25299;SDS011;13241;51.208;4.432;2023-03-05T11:22:07;0.30;;;0.30;;
25299;SDS011;13241;51.208;4.432;2023-03-05T11:24:39;2.22;;;0.40;;
25299;SDS011;13241;51.208;4.432;2023-03-05T11:35:37;7.05;;;0.80;;
25299;SDS011;13241;51.208;4.432;2023-03-05T11:38:06;2.97;;;1.27;;
25299;SDS011;13241;51.208;4.432;2023-03-05T11:40:33;0.93;;;0.75;;
25299;SDS011;13241;51.208;4.432;2023-03-05T11:43:01;3.72;;;0.90;;
25299;SDS011;13241;51.208;4.432;2023-03-05T11:45:30;0.50;;;0.50;;
25299;SDS011;13241;51.208;4.432;2023-03-05T11:48:09;1.20;;;0.50;;
25299;SDS011;13241;51.208;4.432;2023-03-05T11:50:38;0.95;;;0.65;;
25299;SDS011;13241;51.208;4.432;2023-03-05T11:53:11;0.88;;;0.80;;
25299;SDS011;13241;51.208;4.432;2023-03-05T11:55:40;1.17;;;0.90;;
25299;SDS011;13241;51.208;4.432;2023-03-05T12:00:54;1.02;;;1.00;;
25299;SDS011;13241;51.208;4.432;2023-03-05T12:03:29;1.40;;;1.15;;
25299;SDS011;13241;51.208;4.432;2023-03-05T12:06:15;0.95;;;0.90;;
25299;SDS011;13241;51.208;4.432;2023-03-05T12:08:44;0.82;;;0.70;;
25299;SDS011;13241;51.208;4.432;2023-03-05T12:11:21;0.77;;;0.73;;
25299;SDS011;13241;51.208;4.432;2023-03-05T12:13:55;2.38;;;0.85;;
25299;SDS011;13241;51.208;4.432;2023-03-05T12:16:37;0.50;;;0.50;;
25299;SDS011;13241;51.208;4.432;2023-03-05T12:21:53;2.72;;;0.73;;
25299;SDS011;13241;51.208;4.432;2023-03-05T12:39:57;3.90;;;0.80;;
25299;SDS011;13241;51.208;4.432;2023-03-05T12:47:44;1.70;;;0.80;;
25299;SDS011;13241;51.208;4.432;2023-03-05T12:55:23;2.53;;;0.70;;
25299;SDS011;13241;51.208;4.432;2023-03-05T12:57:56;0.40;;;0.38;;
25299;SDS011;13241;51.208;4.432;2023-03-05T13:00:25;0.80;;;0.60;;
25299;SDS011;13241;51.208;4.432;2023-03-05T13:02:54;0.80;;;0.60;;
25299;SDS011;13241;51.208;4.432;2023-03-05T13:10:48;0.90;;;0.85;;
25299;SDS011;13241;51.208;4.432;2023-03-05T13:13:16;0.55;;;0.55;;
25299;SDS011;13241;51.208;4.432;2023-03-05T13:15:46;3.08;;;0.90;;
25299;SDS011;13241;51.208;4.432;2023-03-05T13:18:17;3.92;;;0.70;;
25299;SDS011;13241;51.208;4.432;2023-03-05T13:20:45;0.55;;;0.55;;
25299;SDS011;13241;51.208;4.432;2023-03-05T13:25:56;0.90;;;0.77;;
25299;SDS011;13241;51.208;4.432;2023-03-05T13:28:24;0.30;;;0.30;;
25299;SDS011;13241;51.208;4.432;2023-03-05T13:30:52;0.20;;;0.20;;
25299;SDS011;13241;51.208;4.432;2023-03-05T13:33:24;0.52;;;0.30;;
25299;SDS011;13241;51.208;4.432;2023-03-05T13:35:52;0.30;;;0.30;;
25299;SDS011;13241;51.208;4.432;2023-03-05T13:38:27;1.88;;;0.40;;
25299;SDS011;13241;51.208;4.432;2023-03-05T13:41:03;0.40;;;0.40;;
25299;SDS011;13241;51.208;4.432;2023-03-05T13:43:31;0.32;;;0.30;;
25299;SDS011;13241;51.208;4.432;2023-03-05T13:45:58;0.20;;;0.20;;
25299;SDS011;13241;51.208;4.432;2023-03-05T13:48:26;0.30;;;0.30;;
25299;SDS011;13241;51.208;4.432;2023-03-05T13:50:56;0.75;;;0.60;;
25299;SDS011;13241;51.208;4.432;2023-03-05T13:53:27;0.63;;;0.38;;
25299;SDS011;13241;51.208;4.432;2023-03-05T13:55:56;0.40;;;0.40;;
25299;SDS011;13241;51.208;4.432;2023-03-05T14:03:42;1.63;;;0.90;;
25299;SDS011;13241;51.208;4.432;2023-03-05T14:06:11;1.88;;;0.68;;
25299;SDS011;13241;51.208;4.432;2023-03-05T14:08:42;3.83;;;0.60;;
25299;SDS011;13241;51.208;4.432;2023-03-05T14:11:13;0.40;;;0.40;;
25299;SDS011;13241;51.208;4.432;2023-03-05T14:13:42;0.60;;;0.60;;
25299;SDS011;13241;51.208;4.432;2023-03-05T14:16:11;3.22;;;0.65;;
25299;SDS011;13241;51.208;4.432;2023-03-05T14:18:50;3.88;;;0.75;;
25299;SDS011;13241;51.208;4.432;2023-03-05T14:21:19;2.63;;;0.98;;
25299;SDS011;13241;51.208;4.432;2023-03-05T14:23:47;1.30;;;1.17;;
25299;SDS011;13241;51.208;4.432;2023-03-05T14:26:29;1.67;;;1.00;;
25299;SDS011;13241;51.208;4.432;2023-03-05T14:29:01;2.85;;;1.10;;
25299;SDS011;13241;51.208;4.432;2023-03-05T14:31:29;1.35;;;0.95;;
25299;SDS011;13241;51.208;4.432;2023-03-05T14:34:02;1.67;;;0.98;;
25299;SDS011;13241;51.208;4.432;2023-03-05T14:36:29;0.93;;;0.90;;
25299;SDS011;13241;51.208;4.432;2023-03-05T14:38:57;1.30;;;1.05;;
25299;SDS011;13241;51.208;4.432;2023-03-05T14:41:39;4.82;;;0.90;;
25299;SDS011;13241;51.208;4.432;2023-03-05T14:44:13;0.63;;;0.60;;
25299;SDS011;13241;51.208;4.432;2023-03-05T14:46:41;3.28;;;1.38;;
25299;SDS011;13241;51.208;4.432;2023-03-05T14:49:08;1.73;;;0.80;;
25299;SDS011;13241;51.208;4.432;2023-03-05T14:51:37;11.90;;;0.75;;
25299;SDS011;13241;51.208;4.432;2023-03-05T14:54:05;0.93;;;0.60;;
25299;SDS011;13241;51.208;4.432;2023-03-05T14:56:32;0.80;;;0.70;;
25299;SDS011;13241;51.208;4.432;2023-03-05T14:58:59;1.88;;;0.82;;
25299;SDS011;13241;51.208;4.432;2023-03-05T15:01:27;0.73;;;0.65;;
25299;SDS011;13241;51.208;4.432;2023-03-05T15:03:54;1.80;;;0.82;;
25299;SDS011;13241;51.208;4.432;2023-03-05T15:06:31;5.10;;;0.70;;
25299;SDS011;13241;51.208;4.432;2023-03-05T15:08:59;1.10;;;0.77;;
25299;SDS011;13241;51.208;4.432;2023-03-05T15:11:26;1.00;;;0.90;;
25299;SDS011;13241;51.208;4.432;2023-03-05T15:13:54;2.63;;;0.82;;
25299;SDS011;13241;51.208;4.432;2023-03-05T15:16:21;2.28;;;1.02;;
25299;SDS011;13241;51.208;4.432;2023-03-05T15:18:49;0.90;;;0.90;;
25299;SDS011;13241;51.208;4.432;2023-03-05T15:21:16;0.90;;;0.90;;
25299;SDS011;13241;51.208;4.432;2023-03-05T15:23:43;1.90;;;1.08;;
25299;SDS011;13241;51.208;4.432;2023-03-05T15:26:11;0.95;;;0.88;;
25299;SDS011;13241;51.208;4.432;2023-03-05T15:28:39;0.85;;;0.82;;
25299;SDS011;13241;51.208;4.432;2023-03-05T15:31:06;1.75;;;1.05;;
25299;SDS011;13241;51.208;4.432;2023-03-05T15:33:34;1.08;;;0.98;;
25299;SDS011;13241;51.208;4.432;2023-03-05T15:36:01;4.72;;;0.95;;
25299;SDS011;13241;51.208;4.432;2023-03-05T15:38:28;0.55;;;0.47;;
25299;SDS011;13241;51.208;4.432;2023-03-05T15:40:56;2.53;;;1.02;;
25299;SDS011;13241;51.208;4.432;2023-03-05T15:43:26;0.80;;;0.80;;
25299;SDS011;13241;51.208;4.432;2023-03-05T15:45:55;2.38;;;1.83;;
25299;SDS011;13241;51.208;4.432;2023-03-05T15:48:23;6.38;;;1.38;;
25299;SDS011;13241;51.208;4.432;2023-03-05T15:50:50;6.18;;;2.38;;
25299;SDS011;13241;51.208;4.432;2023-03-05T15:53:17;2.83;;;1.83;;
25299;SDS011;13241;51.208;4.432;2023-03-05T15:55:46;2.20;;;1.35;;
25299;SDS011;13241;51.208;4.432;2023-03-05T15:58:14;1.80;;;1.50;;
25299;SDS011;13241;51.208;4.432;2023-03-05T16:00:42;1.65;;;1.40;;
25299;SDS011;13241;51.208;4.432;2023-03-05T16:03:09;8.85;;;1.80;;
25299;SDS011;13241;51.208;4.432;2023-03-05T16:05:36;2.53;;;1.40;;
25299;SDS011;13241;51.208;4.432;2023-03-05T16:08:04;12.32;;;2.00;;
25299;SDS011;13241;51.208;4.432;2023-03-05T16:10:31;1.83;;;1.73;;
25299;SDS011;13241;51.208;4.432;2023-03-05T16:13:02;3.85;;;2.83;;
25299;SDS011;13241;51.208;4.432;2023-03-05T16:15:30;5.00;;;2.45;;
25299;SDS011;13241;51.208;4.432;2023-03-05T16:17:59;4.05;;;1.60;;
25299;SDS011;13241;51.208;4.432;2023-03-05T16:20:28;6.95;;;2.13;;
25299;SDS011;13241;51.208;4.432;2023-03-05T16:22:55;2.17;;;1.95;;
25299;SDS011;13241;51.208;4.432;2023-03-05T16:25:23;14.25;;;2.00;;
25299;SDS011;13241;51.208;4.432;2023-03-05T16:27:50;3.63;;;1.52;;
25299;SDS011;13241;51.208;4.432;2023-03-05T16:30:17;9.57;;;2.25;;
25299;SDS011;13241;51.208;4.432;2023-03-05T16:32:45;3.78;;;2.40;;
25299;SDS011;13241;51.208;4.432;2023-03-05T16:35:12;3.55;;;2.13;;